Time;durP1;ratioP1;P1;durP2;ratioP2;P2;SDS_P1;SDS_P2;PMS_P1;PMS_P2;Temp;Humidity;BMP_temperature;BMP_pressure;BME280_temperature;BME280_humidity;BME280_pressure;Samples;Min_cycle;Max_cycle;Signal;HPM_P1;HPM_P2
2021/12/11 05:42:37;;;;;;;39.95;16.62;;;;;;;-0.22;100.00;99672.72;5562221;32;199591;-87
2021/12/11 05:45:42;;;;;;;39.70;17.60;;;;;;;-0.28;100.00;99668.50;5547840;32;33842;-87
2021/12/11 05:48:48;;;;;;;37.35;16.27;;;;;;;-0.28;100.00;99681.53;5547629;32;34048;-87
2021/12/11 05:51:51;;;;;;;34.30;15.30;;;;;;;-0.25;100.00;99691.03;5556327;32;33837;-87
2021/12/11 05:54:58;;;;;;;38.05;16.70;;;;;;;-0.23;100.00;99690.13;5551906;32;33857;-87
2021/12/11 05:58:10;;;;;;;35.88;15.98;;;;;;;-0.21;100.00;99692.72;5546713;32;34402;-87
2021/12/11 06:01:22;;;;;;;35.90;16.25;;;;;;;-0.23;100.00;99702.28;5544859;32;34668;-92
2021/12/11 06:04:33;;;;;;;34.28;15.50;;;;;;;-0.18;100.00;99706.56;5546787;32;34866;-88
2021/12/11 06:07:37;;;;;;;34.10;15.70;;;;;;;-0.28;100.00;99720.63;5545986;32;34219;-87
2021/12/11 06:10:41;;;;;;;32.72;14.48;;;;;;;-0.25;100.00;99723.16;5549859;32;34219;-88
2021/12/11 06:13:44;;;;;;;33.00;14.70;;;;;;;-0.25;100.00;99728.38;5558369;32;35160;-88
2021/12/11 06:16:50;;;;;;;36.15;14.82;;;;;;;-0.20;100.00;99730.94;5558964;32;34860;-88
2021/12/11 06:19:55;;;;;;;32.67;15.30;;;;;;;-0.26;100.00;99741.47;5557332;32;34320;-88
2021/12/11 06:22:58;;;;;;;34.63;16.25;;;;;;;-0.26;100.00;99747.50;5554468;32;35093;-87
2021/12/11 06:26:01;;;;;;;29.70;13.27;;;;;;;-0.22;100.00;99758.75;5553243;32;33796;-87
2021/12/11 06:29:04;;;;;;;29.67;14.57;;;;;;;-0.06;100.00;99768.06;5550418;32;34864;-87
2021/12/11 06:32:07;;;;;;;32.97;14.38;;;;;;;-0.12;100.00;99777.72;5548492;32;33805;-87
2021/12/11 06:35:17;;;;;;;30.40;15.23;;;;;;;-0.17;100.00;99785.63;5548752;32;35640;-88
2021/12/11 06:38:26;;;;;;;28.15;12.50;;;;;;;-0.06;100.00;99799.34;5548773;32;34361;-87
2021/12/11 06:41:33;;;;;;;28.12;13.50;;;;;;;0.00;100.00;99801.03;5547331;32;34437;-88
2021/12/11 06:44:37;;;;;;;26.60;12.43;;;;;;;-0.10;100.00;99817.69;5551432;32;34892;-88
2021/12/11 06:47:40;;;;;;;29.95;13.90;;;;;;;-0.14;100.00;99816.88;5549710;32;34347;-88
2021/12/11 06:50:45;;;;;;;26.25;12.70;;;;;;;-0.14;100.00;99817.72;5546080;32;33736;-87
2021/12/11 06:53:55;;;;;;;24.87;11.80;;;;;;;-0.14;100.00;99824.69;5533926;32;34652;-87
2021/12/11 06:56:58;;;;;;;26.17;12.60;;;;;;;-0.05;100.00;99821.09;5535127;32;33787;-88
2021/12/11 07:00:04;;;;;;;24.35;11.50;;;;;;;-0.05;100.00;99828.91;5533296;32;34298;-87
2021/12/11 07:03:06;;;;;;;22.90;12.00;;;;;;;-0.04;100.00;99834.09;5534567;32;34494;-87
2021/12/11 07:06:09;;;;;;;23.38;10.82;;;;;;;0.02;100.00;99835.75;5535372;32;33952;-88
2021/12/11 07:09:14;;;;;;;23.70;12.13;;;;;;;-0.03;100.00;99848.00;5536238;32;33841;-88
2021/12/11 07:12:19;;;;;;;28.00;12.37;;;;;;;-0.04;100.00;99849.72;5542090;32;34784;-87
2021/12/11 07:15:22;;;;;;;21.95;11.48;;;;;;;0.11;100.00;99863.44;5541457;32;34807;-88
2021/12/11 07:18:27;;;;;;;23.73;10.68;;;;;;;0.18;100.00;99874.62;5543913;32;34299;-88
2021/12/11 07:21:30;;;;;;;21.80;11.15;;;;;;;0.20;100.00;99888.53;5542511;32;34686;-87
2021/12/11 07:24:46;;;;;;;24.33;11.80;;;;;;;0.26;100.00;99888.44;5544816;32;34462;-88
2021/12/11 07:27:50;;;;;;;21.60;10.23;;;;;;;0.23;100.00;99902.41;5538994;32;33742;-87
2021/12/11 07:30:55;;;;;;;22.87;10.13;;;;;;;0.23;99.63;99907.63;5534148;32;34267;-88
2021/12/11 07:33:58;;;;;;;18.30;9.35;;;;;;;0.19;99.51;99910.31;5535290;32;34493;-88
2021/12/11 07:37:02;;;;;;;20.60;10.20;;;;;;;0.17;99.18;99915.53;5537578;32;34420;-87
2021/12/11 07:40:08;;;;;;;21.05;10.07;;;;;;;0.31;98.87;99922.28;5535973;32;34050;-88
2021/12/11 07:43:12;;;;;;;18.50;9.25;;;;;;;0.57;98.23;99921.91;5536084;32;34353;-88
2021/12/11 07:46:21;;;;;;;17.35;9.65;;;;;;;0.51;97.28;99925.47;5535493;32;34061;-88
2021/12/11 07:49:25;;;;;;;18.90;10.30;;;;;;;0.40;98.14;99935.19;5537864;32;34429;-87
2021/12/11 07:52:28;;;;;;;19.75;10.02;;;;;;;0.31;98.98;99944.03;5535808;32;34234;-87
2021/12/11 07:55:32;;;;;;;13.45;8.02;;;;;;;0.42;98.65;99935.19;5534881;32;33845;-87
2021/12/11 07:58:35;;;;;;;12.95;7.40;;;;;;;0.42;97.99;99928.22;5536354;32;33935;-87
2021/12/11 08:01:42;;;;;;;16.85;8.40;;;;;;;0.58;96.97;99928.84;5536629;32;33768;-87
2021/12/11 08:04:46;;;;;;;16.90;8.85;;;;;;;0.57;96.89;99926.25;5544368;32;32920;-87
2021/12/11 08:07:49;;;;;;;18.42;9.20;;;;;;;0.69;97.23;99925.22;5536991;32;34158;-88
2021/12/11 08:10:56;;;;;;;15.82;8.82;;;;;;;0.56;97.01;99932.37;5538329;32;34700;-88
2021/12/11 08:14:00;;;;;;;15.55;9.02;;;;;;;0.49;97.63;99937.69;5536338;32;33838;-88
2021/12/11 08:17:06;;;;;;;20.65;10.02;;;;;;;0.41;97.95;99934.34;5536187;32;35445;-88
2021/12/11 08:20:12;;;;;;;17.80;9.93;;;;;;;0.36;98.71;99942.19;5536771;32;33959;-87
2021/12/11 08:23:16;;;;;;;21.33;10.45;;;;;;;0.38;98.77;99939.56;5548331;32;34041;-87
2021/12/11 08:26:21;;;;;;;17.77;10.13;;;;;;;0.44;98.73;99952.53;5559885;32;33326;-87
2021/12/11 08:29:24;;;;;;;15.38;8.73;;;;;;;0.51;97.83;99938.50;5564732;32;34198;-87
2021/12/11 08:32:27;;;;;;;13.13;7.65;;;;;;;0.61;97.88;99946.22;5565613;32;34421;-88
2021/12/11 08:35:30;;;;;;;15.80;8.45;;;;;;;0.55;95.93;99956.75;5564336;32;35342;-88
2021/12/11 08:38:33;;;;;;;12.50;7.35;;;;;;;0.61;96.30;99959.25;5558349;32;33671;-87
2021/12/11 08:41:38;;;;;;;13.80;7.62;;;;;;;0.73;95.28;99958.19;5556337;32;34991;-88
2021/12/11 08:44:49;;;;;;;13.70;7.43;;;;;;;0.64;95.24;99962.69;5557502;32;33980;-88
2021/12/11 08:47:57;;;;;;;11.63;7.40;;;;;;;0.57;95.57;99963.66;5560824;32;33730;-88
2021/12/11 08:51:08;;;;;;;13.73;7.10;;;;;;;0.62;95.18;99972.31;5561587;32;35340;-87
2021/12/11 08:54:12;;;;;;;11.68;7.22;;;;;;;0.61;95.14;99970.56;5557625;32;34220;-88
2021/12/11 08:57:19;;;;;;;11.07;6.93;;;;;;;0.74;94.21;99975.59;5556233;32;35073;-88
2021/12/11 09:00:43;;;;;;;11.43;7.12;;;;;;;0.78;94.32;99970.31;5543938;32;34095;-87
2021/12/11 09:03:58;;;;;;;12.82;6.80;;;;;;;0.71;94.60;99968.69;5555750;32;33474;-88
2021/12/11 09:07:09;;;;;;;13.10;7.75;;;;;;;0.65;95.22;99980.06;5558297;32;33778;-88
2021/12/11 09:10:38;;;;;;;11.98;7.43;;;;;;;0.75;94.37;99987.78;5564654;32;33873;-88
2021/12/11 09:13:46;;;;;;;12.27;8.23;;;;;;;0.75;95.05;99980.78;5558140;32;35295;-88
2021/12/11 09:17:05;;;;;;;11.43;6.82;;;;;;;0.87;95.27;99989.31;5553561;32;34350;-88
2021/12/11 09:20:36;;;;;;;11.35;7.03;;;;;;;0.85;93.30;99985.87;5553540;32;33865;-88
2021/12/11 09:23:51;;;;;;;12.98;7.43;;;;;;;0.64;94.53;99987.91;5553978;32;33838;-88
2021/12/11 09:27:59;;;;;;;12.18;7.03;;;;;;;0.72;94.81;99993.03;5554036;32;33883;-87
2021/12/11 09:31:12;;;;;;;13.07;7.22;;;;;;;0.62;94.76;99994.91;5432527;32;33927;-87
2021/12/11 09:34:20;;;;;;;14.40;7.85;;;;;;;0.78;94.71;100003.37;5475945;32;33803;-87
2021/12/11 09:37:24;;;;;;;17.00;7.87;;;;;;;0.71;94.66;100001.75;5475895;32;33989;-87
2021/12/11 09:40:39;;;;;;;11.45;7.25;;;;;;;0.74;95.09;100014.75;5476884;32;34063;-88
2021/12/11 09:43:56;;;;;;;14.50;8.13;;;;;;;0.86;94.65;100003.28;5483160;32;35004;-87
2021/12/11 09:47:06;;;;;;;14.02;8.48;;;;;;;0.80;94.55;100015.53;5476930;32;33524;-87
2021/12/11 09:50:15;;;;;;;12.25;8.13;;;;;;;0.81;94.77;100026.84;5462651;32;34731;-87
2021/12/11 09:53:20;;;;;;;14.52;8.98;;;;;;;0.80;94.71;100023.37;5474563;32;34066;-87
2021/12/11 09:56:37;;;;;;;12.77;8.00;;;;;;;0.90;94.28;100028.47;5474982;32;33804;-88
2021/12/11 09:59:41;;;;;;;15.43;8.27;;;;;;;0.77;94.59;100025.16;5474055;32;34102;-87
2021/12/11 10:02:45;;;;;;;15.55;8.45;;;;;;;0.84;94.86;100026.78;5471373;32;34299;-87
2021/12/11 10:05:56;;;;;;;15.35;8.82;;;;;;;0.80;94.72;100025.97;5537347;32;34003;-87
2021/12/11 10:09:17;;;;;;;15.70;9.02;;;;;;;0.86;94.66;100017.16;5550933;32;34790;-87
2021/12/11 10:12:43;;;;;;;13.68;8.52;;;;;;;0.88;94.43;100015.41;5550744;32;34033;-91
2021/12/11 10:15:46;;;;;;;18.02;9.32;;;;;;;0.82;95.23;100007.69;5555009;32;33763;-87
2021/12/11 10:18:50;;;;;;;17.37;9.45;;;;;;;0.89;95.17;100011.03;5554597;32;34275;-88
2021/12/11 10:22:07;;;;;;;16.87;9.80;;;;;;;0.96;94.42;100009.22;5557359;32;34253;-88
2021/12/11 10:25:18;;;;;;;17.15;9.70;;;;;;;0.84;95.43;100005.91;5555483;32;34101;-88
2021/12/11 10:28:23;;;;;;;16.33;9.68;;;;;;;0.77;95.24;100001.66;5554745;32;34172;-88
2021/12/11 10:31:35;;;;;;;19.12;10.55;;;;;;;0.78;95.78;100017.31;5552632;32;33548;-87
2021/12/11 10:34:44;;;;;;;16.15;10.23;;;;;;;0.77;95.92;100022.56;5550699;32;34146;-87
2021/12/11 10:37:47;;;;;;;18.60;10.38;;;;;;;0.78;95.56;100014.69;5553476;32;35067;-87
2021/12/11 10:40:55;;;;;;;16.33;8.18;;;;;;;0.88;95.59;100020.66;5557910;32;33669;-87
2021/12/11 10:44:06;;;;;;;14.32;8.95;;;;;;;0.86;94.39;100030.22;5553668;32;34558;-88
2021/12/11 10:47:18;;;;;;;14.05;8.27;;;;;;;0.87;94.88;100025.88;5555969;32;33802;-87
2021/12/11 10:50:46;;;;;;;14.90;8.98;;;;;;;0.88;94.75;100025.00;5555241;32;33513;-88
2021/12/11 10:53:50;;;;;;;14.82;9.10;;;;;;;0.87;94.40;100023.28;5553548;32;34070;-87
2021/12/11 10:56:53;;;;;;;16.52;9.30;;;;;;;0.96;94.58;100028.38;5553822;32;34411;-88
2021/12/11 10:59:58;;;;;;;16.87;8.50;;;;;;;1.00;94.55;100021.34;5553244;32;33754;-88
2021/12/11 11:03:06;;;;;;;15.40;8.95;;;;;;;1.05;94.03;100015.16;5553082;32;33774;-88
2021/12/11 11:06:09;;;;;;;15.55;9.40;;;;;;;0.99;94.19;100014.38;5556421;32;34251;-91
2021/12/11 11:09:15;;;;;;;17.23;9.23;;;;;;;1.02;94.13;100007.38;5554375;32;34132;-91
2021/12/11 11:12:21;;;;;;;16.33;9.43;;;;;;;0.98;94.21;100004.81;5555967;32;33890;-88
2021/12/11 11:15:26;;;;;;;16.65;9.10;;;;;;;1.06;94.13;100001.19;5555369;32;34254;-87
2021/12/11 11:18:29;;;;;;;15.55;8.88;;;;;;;1.06;94.28;100006.41;5554748;32;34242;-88
2021/12/11 11:21:39;;;;;;;16.00;8.82;;;;;;;1.12;94.11;100005.47;5554835;32;34312;-87
2021/12/11 11:24:53;;;;;;;17.70;9.13;;;;;;;1.28;93.54;100007.81;5552098;32;34077;-88
2021/12/11 11:28:00;;;;;;;15.68;8.95;;;;;;;1.23;94.02;99999.19;5552313;32;34633;-88
2021/12/11 11:31:17;;;;;;;17.20;9.60;;;;;;;1.17;93.72;99998.38;5551683;32;33827;-88
2021/12/11 11:34:22;;;;;;;19.02;9.70;;;;;;;1.10;94.46;99985.47;5552106;32;33856;-88
2021/12/11 11:37:24;;;;;;;15.73;9.38;;;;;;;1.05;94.93;99980.31;5553716;32;34585;-88
2021/12/11 11:40:32;;;;;;;16.30;9.38;;;;;;;1.29;93.58;99984.28;5552947;32;34136;-88
2021/12/11 11:43:38;;;;;;;15.52;9.25;;;;;;;1.40;93.30;99986.69;5558913;32;34102;-88
2021/12/11 11:46:42;;;;;;;16.87;9.32;;;;;;;1.31;93.85;100000.78;5564130;32;35180;-88
2021/12/11 11:49:47;;;;;;;15.32;9.05;;;;;;;1.12;94.30;100000.25;5556027;32;34898;-87
2021/12/11 11:52:50;;;;;;;15.27;9.02;;;;;;;1.14;94.71;100006.28;5554529;32;33997;-87
2021/12/11 11:55:58;;;;;;;15.57;9.82;;;;;;;1.22;94.57;100008.78;5554007;32;34879;-88
2021/12/11 11:59:03;;;;;;;16.92;10.30;;;;;;;1.31;94.44;100019.06;5552843;32;35143;-87
2021/12/11 12:02:17;;;;;;;17.50;9.98;;;;;;;1.27;94.32;100025.25;5556325;32;34210;-87
